Flight Track Log - Related Links

Times and Time Zones

All times are in EDT time to prevent confusion due to time zone crossing. See the DAL6231 flight status page for this flight to view local times or setup timezone preferences in your user account.

Time Position Orientation Groundspeed Altitude Reporting Facility
EDT Latitude Longitude Course Direction KTS MPH feet Rate Location/Type
Tue 09:37:36 PM 40.7500 -73.8333 131° Southeast 176 203 1,500  Level New York TRACON
Tue 09:38:36 PM 40.7167 -73.7833 131° Southeast 218 251 4,000 1,930 Climbing New York TRACON
Tue 09:40:27 PM 40.8197 -73.7044 30° Northeast 249 287 7,000 1,965 Climbing Boston Center
Tue 09:41:27 PM 40.8808 -73.6508 34° Northeast 259 298 9,600 2,380 Climbing Boston Center
Tue 09:42:28 PM 40.9442 -73.5858 38° Northeast 270 311 11,800 2,033 Climbing Boston Center
Tue 09:43:28 PM 41.0242 -73.5047 37° Northeast 309 356 13,700 1,800 Climbing Boston Center
Tue 09:44:28 PM 41.0914 -73.4344 38° Northeast 341 392 15,400 1,900 Climbing Boston Center
Tue 09:45:28 PM 41.1817 -73.3447 37° Northeast 354 407 17,500 1,850 Climbing Boston Center
Tue 09:46:28 PM 41.2636 -73.2631 37° Northeast 359 413 19,100 1,613 Climbing Boston Center
Tue 09:47:27 PM 41.3392 -73.1867 37° Northeast 366 421 20,700 1,563 Climbing Boston Center
Tue 09:48:27 PM 41.4108 -73.0794 48° Northeast 366 421 22,200 1,450 Climbing Boston Center
Tue 09:49:27 PM 41.4678 -72.9525 59° Northeast 382 440 23,600 1,200 Climbing Boston Center
Tue 09:50:27 PM 41.5244 -72.8228 60° Northeast 388 447 24,600 1,100 Climbing Boston Center
Tue 09:51:27 PM 41.5997 -72.7039 50° Northeast 407 468 25,800 1,091 Climbing Boston Center
Tue 09:52:28 PM 41.6792 -72.5819 49° Northeast 420 483 26,800 992 Climbing Boston Center
Tue 09:53:28 PM 41.7606 -72.4567 49° Northeast 431 496 27,800 1,008 Climbing Boston Center
Tue 09:54:27 PM 41.8439 -72.3286 49° Northeast 437 503 28,800 1,008 Climbing Boston Center
Tue 09:55:27 PM 41.9292 -72.1972 49° Northeast 451 519 29,800 1,050 Climbing Boston Center
Tue 09:56:27 PM 42.0122 -72.0656 50° Northeast 456 525 30,900 950 Climbing Boston Center
Tue 09:57:27 PM 42.0969 -71.9336 49° Northeast 456 525 31,700 800 Climbing Boston Center
Tue 09:58:27 PM 42.1819 -71.7958 50° Northeast 466 536 32,500 800 Climbing Boston Center
Tue 09:59:27 PM 42.2706 -71.6631 48° Northeast 471 542 33,300 793 Climbing Boston Center
Tue 10:00:28 PM 42.3592 -71.5269 49° Northeast 471 542 34,100 645 Climbing Boston Center
Tue 10:01:28 PM 42.4475 -71.3878 49° Northeast 471 542 34,600 600 Climbing Boston Center
Tue 10:02:28 PM 42.5339 -71.2483 50° Northeast 477 549 35,300 650 Climbing Boston Center
Tue 10:03:28 PM 42.6239 -71.1028 50° Northeast 483 556 35,900 350 Climbing Boston Center
Tue 10:04:28 PM 42.7139 -70.9567 50° Northeast 488 562 36,000 50 Climbing Boston Center
Tue 10:05:27 PM 42.8056 -70.8044 51° Northeast 501 577 36,000  Level Boston Center
Tue 10:06:27 PM 42.9011 -70.6486 50° Northeast 517 595 36,000  Level Boston Center
Tue 10:07:28 PM 42.9964 -70.4869 51° Northeast 528 608 36,000  Level Boston Center
Tue 10:08:27 PM 43.0894 -70.3361 50° Northeast 534 615 36,000  Level Boston Center
Tue 10:09:28 PM 43.1806 -70.1850 50° Northeast 528 608 36,000  Level Boston Center
Tue 10:10:28 PM 43.2769 -70.0161 52° Northeast 522 601 36,000  Level Boston Center
Tue 10:11:27 PM 43.3675 -69.8639 51° Northeast 522 601 36,000  Level Boston Center
Tue 10:12:28 PM 43.4619 -69.7053 51° Northeast 522 601 36,000  Level Boston Center
Tue 10:13:27 PM 43.5558 -69.5492 50° Northeast 522 601 36,000  Level Boston Center
Tue 10:14:27 PM 43.6478 -69.3897 51° Northeast 528 608 36,000  Level Boston Center
Tue 10:15:28 PM 43.7414 -69.2328 50° Northeast 533 613 36,000  Level Boston Center
Tue 10:16:28 PM 43.8147 -69.1022 52° Northeast 528 608 36,000  Level Boston Center
Tue 10:17:27 PM 43.9256 -68.9056 52° Northeast 533 613 36,000  Level Boston Center
Tue 10:18:27 PM 44.0228 -68.7439 50° Northeast 533 613 36,000  Level Boston Center
Tue 10:19:27 PM 44.1131 -68.5794 53° Northeast 533 613 36,000  Level Boston Center
Tue 10:20:27 PM 44.1958 -68.4350 51° Northeast 533 613 36,000  Level Boston Center
Tue 10:21:28 PM 44.2900 -68.2689 52° Northeast 533 613 36,000  Level Boston Center
Tue 10:22:28 PM 44.3839 -68.1025 52° Northeast 533 613 36,000  Level Boston Center
Tue 10:23:28 PM 44.4775 -67.9356 52° Northeast 533 613 36,000  Level Boston Center
Tue 10:24:16 PM 44.5500 -67.7833 56° Northeast 540 621 36,000  Level Moncton Center
Tue 10:25:16 PM 44.6333 -67.6167 55° Northeast 550 633 36,000  Level Moncton Center
Tue 10:26:16 PM 44.7333 -67.4333 52° Northeast 540 621 36,000  Level Moncton Center
Tue 10:26:39 PM 44.7547 -67.4286 North 543 625 36,000  Level Boston Center
Tue 10:27:16 PM 44.8167 -67.2667 62° Northeast 550 633 36,000  Level Moncton Center
Tue 10:28:16 PM 44.8667 -67.0667 71° East 540 621 36,000  Level Moncton Center
Tue 10:29:16 PM 44.9000 -66.8833 76° East 520 598 36,000  Level Moncton Center
Tue 10:30:16 PM 44.9000 -66.6833 90° East 520 598 36,000 -700 Level Moncton Center
Tue 10:31:16 PM 44.9000 -66.4667 90° East 520 598 34,600 -1,650 Descending Moncton Center
Tue 10:32:16 PM 44.9000 -66.2667 90° East 510 587 32,700 -2,000 Descending Moncton Center
Tue 10:33:16 PM 44.9167 -66.0667 83° East 500 575 30,600 -2,050 Descending Moncton Center
Tue 10:34:16 PM 44.9167 -65.8833 90° East 490 564 28,600 -2,050 Descending Moncton Center
Tue 10:35:16 PM 44.9167 -65.6667 90° East 490 564 26,500 -2,050 Descending Moncton Center
Tue 10:36:16 PM 44.9167 -65.5000 90° East 480 552 24,500 -1,950 Descending Moncton Center
Tue 10:37:16 PM 44.9167 -65.3167 90° East 460 529 22,600 -2,000 Descending Moncton Center
Tue 10:38:16 PM 44.9167 -65.1500 90° East 440 506 20,500 -2,050 Descending Moncton Center
Tue 10:39:16 PM 44.9167 -64.9833 90° East 420 483 18,500 -1,750 Descending Moncton Center
Tue 10:40:16 PM 44.9167 -64.8167 90° East 410 472 17,000 -1,800 Descending Moncton Center
Tue 10:41:16 PM 44.9333 -64.6833 80° East 390 449 14,900 -2,000 Descending Moncton Center
Tue 10:42:16 PM 44.9333 -64.5167 90° East 390 449 13,000 -1,950 Descending Moncton Center
Tue 10:43:16 PM 44.9500 -64.3667 81° East 380 437 11,000 -1,550 Descending Moncton Center
Tue 10:44:16 PM 44.9500 -64.2333 90° East 360 414 9,900 -1,100 Descending Moncton Center
Tue 10:45:16 PM 44.9667 -64.1167 79° East 310 357 8,800 -1,550 Descending Moncton Center
Tue 10:46:16 PM 44.9667 -64.0000 90° East 300 345 6,800 -1,850 Descending Moncton Center
Tue 10:47:16 PM 44.9833 -63.9000 77° East 270 311 5,100 -1,700 Descending Moncton Center
Tue 10:48:16 PM 44.9833 -63.8000 90° East 240 276 3,400 -1,250 Descending Moncton Center
Tue 10:49:16 PM 44.9833 -63.7333 90° East 200 230 2,600 -600 Descending Moncton Center
Tue 10:50:16 PM 44.9667 -63.6667 109° East 160 184 2,200 -200 Descending Moncton Center
Tue 10:51:16 PM 44.9333 -63.6167 133° Southeast 160 184 2,200 -350 Level Moncton Center
Tue 10:52:16 PM 44.9167 -63.5667 115° Southeast 160 184 1,500 -750 Descending Moncton Center
Tue 10:53:16 PM 44.8833 -63.5167 133° Southeast 170 196 700 -800 Descending Moncton Center

Login

Don't have an account? Register now (free) for customized features, flight alerts, and more!